Time;durP1;ratioP1;P1;durP2;ratioP2;P2;SDS_P1;SDS_P2;PMS_P1;PMS_P2;Temp;Humidity;BMP_temperature;BMP_pressure;BME280_temperature;BME280_humidity;BME280_pressure;Samples;Min_cycle;Max_cycle;Signal;HPM_P1;HPM_P2
2021/06/17 00:04:35;;;;;;;9.38;2.75;;;;;;;19.82;48.83;101036.33;4975790;58;1140417;-87
2021/06/17 00:09:41;;;;;;;11.25;3.35;;;;;;;19.78;48.81;101041.19;4975934;58;1138272;-85
2021/06/17 00:14:47;;;;;;;8.10;3.15;;;;;;;19.76;48.83;101036.98;4976456;57;1140437;-88
2021/06/17 00:19:53;;;;;;;9.15;2.83;;;;;;;19.70;48.79;101045.22;4987448;57;1138318;-87
2021/06/17 00:24:58;;;;;;;6.17;2.95;;;;;;;19.61;48.87;101044.34;4957898;57;1138224;-83
2021/06/17 00:30:07;;;;;;;9.53;2.90;;;;;;;19.58;48.96;101046.51;4965616;58;1138507;-88
2021/06/17 00:35:14;;;;;;;6.90;3.12;;;;;;;19.52;49.03;101054.73;4965407;58;1138390;-83
2021/06/17 00:40:22;;;;;;;8.95;2.52;;;;;;;19.42;49.15;101049.12;4965504;58;1138865;-86
2021/06/17 00:45:34;;;;;;;7.28;3.20;;;;;;;19.31;49.28;101038.20;4965115;58;1138760;-87
2021/06/17 00:50:44;;;;;;;12.15;4.15;;;;;;;19.23;49.52;101040.87;4965420;58;1138971;-87
2021/06/17 00:55:50;;;;;;;6.87;2.80;;;;;;;19.17;49.73;101040.16;4965220;58;1141041;-84
2021/06/17 01:00:57;;;;;;;6.92;2.98;;;;;;;19.08;49.90;101037.96;4965245;58;1138283;-83
2021/06/17 01:06:03;;;;;;;6.55;3.33;;;;;;;19.02;50.04;101045.80;4965222;58;1138413;-85
2021/06/17 01:11:36;;;;;;;7.60;3.60;;;;;;;18.98;50.23;101042.09;4965358;58;1138423;-88
2021/06/17 01:17:01;;;;;;;9.30;3.77;;;;;;;18.92;50.38;101040.07;4965674;58;1138306;-89
2021/06/17 01:22:51;;;;;;;10.32;3.42;;;;;;;18.84;50.60;101035.99;4965132;58;1138462;-86
2021/06/17 01:28:11;;;;;;;9.90;3.52;;;;;;;18.81;50.81;101048.36;4964625;58;1141006;-84
2021/06/17 01:33:18;;;;;;;9.15;3.90;;;;;;;18.81;50.94;101041.66;4965180;58;1138762;-88
2021/06/17 01:38:26;;;;;;;18.23;3.87;;;;;;;18.80;51.03;101042.66;4965469;58;1138497;-89
2021/06/17 01:43:32;;;;;;;8.25;3.40;;;;;;;18.76;51.05;101045.34;4964754;58;1140508;-88
2021/06/17 01:48:39;;;;;;;6.28;3.84;;;;;;;18.73;51.33;101047.00;4965360;58;1138733;-87
2021/06/17 01:53:48;;;;;;;6.78;3.70;;;;;;;18.65;51.49;101047.43;4965382;58;1138732;-88
2021/06/17 01:59:04;;;;;;;11.80;3.90;;;;;;;18.60;51.71;101051.95;4935588;58;1138982;-84
2021/06/17 02:04:10;;;;;;;9.50;3.85;;;;;;;18.52;51.90;101051.84;4964888;58;1140533;-85
2021/06/17 02:09:18;;;;;;;13.03;3.92;;;;;;;18.45;52.13;101048.13;4965029;58;1138330;-83
2021/06/17 02:14:26;;;;;;;5.97;3.55;;;;;;;18.35;52.35;101049.55;4964872;58;1140594;-90
2021/06/17 02:19:34;;;;;;;10.03;3.73;;;;;;;18.24;52.66;101046.63;4980498;58;1138988;-89
2021/06/17 02:24:41;;;;;;;11.05;3.75;;;;;;;18.16;53.01;101041.23;5008704;58;1140841;-85
2021/06/17 02:29:50;;;;;;;11.35;4.08;;;;;;;18.14;53.26;101043.71;5008636;58;1140808;-85
2021/06/17 02:34:58;;;;;;;7.62;4.05;;;;;;;18.18;53.66;101047.77;5008701;58;1140933;-87
2021/06/17 02:40:07;;;;;;;15.30;4.17;;;;;;;18.18;53.70;101039.73;5009239;58;1138945;-82
2021/06/17 02:45:15;;;;;;;19.70;4.03;;;;;;;18.18;53.95;101035.19;5008807;58;1141039;-81
2021/06/17 02:50:22;;;;;;;11.90;3.80;;;;;;;18.18;54.14;101036.53;5008872;58;1141207;-81
2021/06/17 02:55:28;;;;;;;10.65;4.37;;;;;;;18.21;54.34;101036.23;5008854;58;1140801;-85
2021/06/17 03:00:37;;;;;;;10.82;3.98;;;;;;;18.24;54.40;101029.73;5008352;58;1168030;-82
2021/06/17 03:05:52;;;;;;;11.73;4.08;;;;;;;18.28;54.54;101035.12;5009015;58;1141050;-85
2021/06/17 03:11:03;;;;;;;13.07;3.80;;;;;;;18.28;54.60;101036.45;5007340;58;1140971;-82
2021/06/17 03:16:12;;;;;;;8.55;3.83;;;;;;;18.24;54.76;101034.58;5008860;58;1140996;-84
2021/06/17 03:21:23;;;;;;;12.50;4.07;;;;;;;18.24;55.09;101037.27;5008960;57;1138915;-83
2021/06/17 03:26:29;;;;;;;7.60;3.47;;;;;;;18.26;55.17;101033.93;5009088;58;1140737;-83
2021/06/17 03:31:38;;;;;;;9.15;3.90;;;;;;;18.28;55.55;101025.75;4998614;58;1138671;-83
2021/06/17 03:36:45;;;;;;;13.83;3.67;;;;;;;18.26;55.62;101015.69;5023294;57;1138438;-84
2021/06/17 03:41:54;;;;;;;5.60;3.77;;;;;;;18.25;56.01;101021.54;5008887;58;1140882;-80
2021/06/17 03:47:01;;;;;;;7.23;3.33;;;;;;;18.21;56.66;101024.18;5008892;58;1138473;-83
2021/06/17 03:52:09;;;;;;;8.53;3.60;;;;;;;18.20;57.04;101022.99;5008864;58;1138250;-85
2021/06/17 03:57:18;;;;;;;13.07;3.70;;;;;;;18.19;56.86;101022.16;5008938;58;1139017;-81
2021/06/17 04:02:25;;;;;;;7.57;3.73;;;;;;;18.23;56.92;101020.02;5008690;57;1140860;-81
2021/06/17 04:07:34;;;;;;;9.03;4.03;;;;;;;18.25;56.83;101024.22;4979170;58;1138262;-80
2021/06/17 04:12:41;;;;;;;10.87;3.80;;;;;;;18.27;56.76;101016.87;5009024;58;1138842;-80
2021/06/17 04:17:54;;;;;;;7.00;3.90;;;;;;;18.29;56.84;101015.38;5008841;58;1140330;-81
2021/06/17 04:23:04;;;;;;;11.28;4.22;;;;;;;18.34;57.11;101015.73;4983948;58;1138432;-80
2021/06/17 04:28:10;;;;;;;13.65;4.40;;;;;;;18.36;57.04;101007.04;4956535;59;1140324;-83
2021/06/17 04:33:20;;;;;;;9.10;4.57;;;;;;;18.38;57.12;101000.19;4997772;58;1140834;-80
2021/06/17 04:38:26;;;;;;;5.00;3.60;;;;;;;18.43;57.17;101000.07;4827489;59;1138332;-82
2021/06/17 04:43:37;;;;;;;6.60;3.73;;;;;;;18.51;57.26;101012.16;4827486;59;1138318;-84
2021/06/17 04:48:44;;;;;;;6.85;3.75;;;;;;;18.56;57.25;100999.64;4827668;59;1138830;-80
2021/06/17 04:53:52;;;;;;;8.33;4.08;;;;;;;18.71;57.31;101010.14;4827753;59;1138734;-81
2021/06/17 04:58:58;;;;;;;7.45;3.02;;;;;;;18.81;57.36;101010.84;4827558;59;1138754;-83
2021/06/17 05:04:03;;;;;;;9.43;3.87;;;;;;;18.91;57.35;101007.56;4827739;59;1138950;-86
2021/06/17 05:14:34;;;;;;;12.16;3.90;;;;;;;19.16;57.33;101013.84;4827060;59;1141151;-80
2021/06/17 05:19:40;;;;;;;12.75;3.60;;;;;;;19.29;57.45;101017.41;4827485;59;1140893;-82
2021/06/17 05:24:47;;;;;;;7.08;3.25;;;;;;;19.43;57.58;101018.61;4865481;59;1141082;-81
2021/06/17 05:29:53;;;;;;;16.82;4.00;;;;;;;19.59;57.61;101018.67;4913176;59;1138905;-82
2021/06/17 05:34:59;;;;;;;7.17;3.60;;;;;;;19.80;57.66;101015.52;4916623;58;1140626;-82
2021/06/17 05:40:07;;;;;;;4.90;3.60;;;;;;;20.02;57.83;101010.81;4912982;59;1138827;-82
2021/06/17 05:45:13;;;;;;;12.70;3.92;;;;;;;20.27;57.47;101015.69;4917116;59;1138764;-81
2021/06/17 05:50:19;;;;;;;8.43;4.15;;;;;;;20.44;57.39;101003.10;4913116;59;1140417;-88
2021/06/17 05:55:26;;;;;;;4.35;3.98;;;;;;;20.65;57.03;101014.12;4917655;59;1138290;-90
2021/06/17 06:00:32;;;;;;;17.17;4.62;;;;;;;20.78;56.80;101018.44;4894139;58;1138657;-83
2021/06/17 06:05:38;;;;;;;7.83;4.17;;;;;;;20.91;57.05;101017.41;4882554;58;1140919;-86
2021/06/17 06:10:45;;;;;;;24.50;4.87;;;;;;;21.02;57.21;101008.11;4816737;59;1138572;-86
2021/06/17 06:15:51;;;;;;;11.43;4.85;;;;;;;21.24;57.36;101012.73;4793208;59;1141124;-86
2021/06/17 06:20:58;;;;;;;10.60;4.65;;;;;;;21.47;57.39;101010.59;4818769;59;1140914;-87
2021/06/17 06:26:04;;;;;;;13.62;5.80;;;;;;;21.67;57.32;101007.78;4872117;58;1140968;-83
2021/06/17 06:31:12;;;;;;;13.18;5.08;;;;;;;21.91;57.18;101011.62;4878786;58;1140896;-82
2021/06/17 06:36:19;;;;;;;10.28;5.78;;;;;;;22.10;57.24;101013.86;4902088;58;1140911;-85
2021/06/17 06:41:25;;;;;;;6.37;5.40;;;;;;;22.26;56.90;101008.83;4771277;60;1141178;-84
2021/06/17 06:46:31;;;;;;;14.33;6.15;;;;;;;22.41;56.58;101013.73;4861464;59;1138828;-84
2021/06/17 06:51:41;;;;;;;11.55;7.83;;;;;;;22.57;56.56;101013.23;4826714;60;1140884;-84
2021/06/17 06:56:48;;;;;;;14.28;6.55;;;;;;;22.71;56.35;101015.94;4860235;59;1140863;-81
2021/06/17 07:01:54;;;;;;;12.18;6.97;;;;;;;22.90;56.36;101021.31;4814996;60;1141048;-82
2021/06/17 07:07:00;;;;;;;13.35;5.62;;;;;;;23.14;55.98;101026.91;4834569;60;1140590;-83
2021/06/17 07:12:07;;;;;;;7.20;5.40;;;;;;;23.33;55.89;101029.53;4800655;60;1140656;-80
2021/06/17 07:17:13;;;;;;;10.04;5.82;;;;;;;23.57;56.28;101033.77;4820965;60;1138893;-79
2021/06/17 07:22:19;;;;;;;8.63;5.90;;;;;;;23.72;55.12;101052.11;4802041;60;1140416;-84
2021/06/17 07:27:25;;;;;;;9.98;6.67;;;;;;;23.89;54.76;101051.34;4899382;58;1138530;-84
2021/06/17 07:32:31;;;;;;;8.20;5.87;;;;;;;24.09;53.79;101053.22;4771941;59;1138345;-83
2021/06/17 07:37:38;;;;;;;8.50;6.03;;;;;;;24.28;53.91;101053.63;4912838;59;1138827;-78
2021/06/17 07:42:44;;;;;;;11.55;6.30;;;;;;;24.50;54.29;101055.23;4837810;60;1138378;-80
2021/06/17 07:47:50;;;;;;;11.18;6.65;;;;;;;24.71;53.73;101044.36;4915148;59;1140744;-77
2021/06/17 07:52:56;;;;;;;11.60;6.08;;;;;;;24.92;52.50;101048.84;4837720;60;1140638;-78
2021/06/17 07:58:03;;;;;;;12.98;5.87;;;;;;;25.05;52.67;101035.95;4914428;59;1140392;-81
2021/06/17 08:03:09;;;;;;;14.75;6.62;;;;;;;25.26;52.48;101049.88;4837109;60;1140519;-78
2021/06/17 08:08:16;;;;;;;14.35;7.03;;;;;;;25.38;51.72;101057.73;4914507;59;1140862;-77
2021/06/17 08:13:22;;;;;;;16.23;6.22;;;;;;;25.56;51.90;101054.77;4767147;60;1140419;-77
2021/06/17 08:18:28;;;;;;;10.25;6.45;;;;;;;25.74;51.68;101059.65;4841585;59;1140807;-76
2021/06/17 08:23:34;;;;;;;12.05;7.22;;;;;;;25.92;51.06;101054.48;4828983;60;1140789;-76
2021/06/17 08:28:39;;;;;;;13.62;6.33;;;;;;;26.09;50.57;101055.44;4810798;60;1199803;-80
2021/06/17 08:33:46;;;;;;;12.23;6.50;;;;;;;26.20;49.95;101052.09;4826426;60;1140648;-81
2021/06/17 08:38:52;;;;;;;28.70;12.07;;;;;;;26.37;50.24;101053.91;4781553;60;1140666;-84
2021/06/17 08:43:57;;;;;;;11.27;7.30;;;;;;;26.61;49.84;101051.36;4790080;60;1142819;-80
2021/06/17 08:49:03;;;;;;;10.65;6.47;;;;;;;26.78;48.97;101040.06;4782310;60;1140411;-82
2021/06/17 08:54:10;;;;;;;9.23;5.40;;;;;;;26.91;47.73;101032.71;4769437;60;1140784;-80
2021/06/17 08:59:17;;;;;;;10.88;6.00;;;;;;;27.03;46.97;101047.03;4758509;60;1138461;-78
2021/06/17 09:04:26;;;;;;;14.83;5.70;;;;;;;27.14;48.34;101055.34;4792014;59;1140637;-79
2021/06/17 09:09:44;;;;;;;8.00;5.40;;;;;;;27.34;48.12;101053.91;4775708;60;1140594;-82
2021/06/17 09:14:57;;;;;;;12.23;5.85;;;;;;;27.48;46.91;101058.23;4750951;60;1139086;-84
2021/06/17 09:20:04;;;;;;;6.25;5.45;;;;;;;27.61;46.38;101053.28;4784689;60;1140946;-85
2021/06/17 09:25:10;;;;;;;9.43;5.10;;;;;;;27.66;43.26;101057.52;4798992;59;1139162;-78
2021/06/17 09:30:23;;;;;;;13.93;6.72;;;;;;;27.74;44.01;101048.28;4801167;59;1138816;-82
2021/06/17 09:35:32;;;;;;;9.83;6.08;;;;;;;27.86;44.81;101041.09;4839442;59;1140983;-78
2021/06/17 09:40:45;;;;;;;15.95;5.60;;;;;;;28.04;44.45;101038.97;4850846;59;1139125;-81
2021/06/17 09:46:06;;;;;;;10.80;5.67;;;;;;;28.16;44.58;101032.59;4852327;59;1140865;-87
2021/06/17 09:51:40;;;;;;;10.80;6.53;;;;;;;28.33;42.73;101037.81;4851253;59;1140965;-82
2021/06/17 09:57:00;;;;;;;8.15;6.25;;;;;;;28.14;42.48;101031.98;4851855;59;1140898;-86
2021/06/17 10:02:12;;;;;;;10.08;6.58;;;;;;;28.03;42.01;101049.02;4851546;59;1138380;-79
2021/06/17 10:07:20;;;;;;;9.85;6.12;;;;;;;28.13;42.37;101045.27;4851269;59;1140907;-81
2021/06/17 10:12:26;;;;;;;11.57;5.90;;;;;;;28.38;43.41;101043.95;4851670;59;1138386;-82
2021/06/17 10:17:32;;;;;;;7.90;5.90;;;;;;;28.63;42.33;101049.36;4858048;59;1140614;-81
2021/06/17 10:22:39;;;;;;;14.30;5.47;;;;;;;28.67;41.94;101045.97;4873957;59;1138519;-79
2021/06/17 10:27:49;;;;;;;10.82;6.12;;;;;;;28.68;41.68;101027.22;4922346;59;1141246;-82
2021/06/17 10:32:58;;;;;;;11.20;7.95;;;;;;;28.78;40.52;101034.86;4885613;59;1140612;-82
2021/06/17 10:38:06;;;;;;;7.70;6.17;;;;;;;28.86;40.75;101048.75;4783903;60;1140603;-81
2021/06/17 10:43:24;;;;;;;13.50;6.28;;;;;;;28.92;40.30;101037.77;4773095;59;1138545;-79
2021/06/17 10:48:43;;;;;;;8.23;5.78;;;;;;;28.94;40.57;101031.56;4827156;59;1140619;-85
2021/06/17 10:53:53;;;;;;;52.80;7.53;;;;;;;28.93;40.64;101038.06;4810941;59;1138762;-83
2021/06/17 10:58:59;;;;;;;9.80;6.23;;;;;;;29.05;39.74;101024.52;4780896;59;1140896;-82
2021/06/17 11:04:09;;;;;;;11.18;6.03;;;;;;;29.35;40.18;101034.09;4814199;59;1138355;-86
2021/06/17 11:09:43;;;;;;;10.90;6.17;;;;;;;29.51;39.33;101028.02;4797717;59;1140766;-86
2021/06/17 11:14:58;;;;;;;8.04;6.14;;;;;;;29.58;39.37;101014.31;4792358;60;1140644;-88
2021/06/17 11:20:19;;;;;;;8.45;5.65;;;;;;;29.59;39.24;101014.62;4802585;60;1138872;-84
2021/06/17 11:25:25;;;;;;;8.38;6.62;;;;;;;29.74;38.62;101011.76;4820956;59;1139015;-84
2021/06/17 11:30:54;;;;;;;7.35;6.62;;;;;;;29.84;38.87;101019.89;4777431;60;1138804;-83
2021/06/17 11:36:06;;;;;;;7.30;5.67;;;;;;;29.81;37.95;101023.91;4755552;60;1138822;-85
2021/06/17 11:41:15;;;;;;;6.67;5.03;;;;;;;29.98;38.38;101012.66;4868344;59;1138998;-85
2021/06/17 11:46:38;;;;;;;15.70;5.85;;;;;;;30.10;36.29;101009.94;4850188;59;1138907;-84
2021/06/17 11:51:54;;;;;;;9.48;6.47;;;;;;;30.01;36.19;101019.02;4756415;60;1141422;-84
2021/06/17 11:57:03;;;;;;;7.28;5.90;;;;;;;29.93;37.94;101008.96;4814206;59;1138913;-82
2021/06/17 12:02:19;;;;;;;12.65;6.10;;;;;;;29.99;37.13;101012.96;4827144;59;1138382;-84
2021/06/17 12:07:29;;;;;;;13.95;6.37;;;;;;;30.02;37.15;101007.57;4786492;60;1140629;-83
2021/06/17 12:12:35;;;;;;;13.98;5.97;;;;;;;29.94;37.54;100997.82;4890788;59;1140606;-80
2021/06/17 12:17:48;;;;;;;7.78;6.20;;;;;;;30.05;37.52;100993.47;4819119;59;1140608;-82
2021/06/17 12:23:07;;;;;;;8.40;6.50;;;;;;;30.08;37.81;100992.47;4781387;60;1138815;-83
2021/06/17 12:28:18;;;;;;;15.10;6.90;;;;;;;30.18;36.88;101000.06;4787139;60;1138507;-83
2021/06/17 12:33:28;;;;;;;7.15;6.45;;;;;;;30.18;37.84;100986.41;4870851;59;1140582;-83
2021/06/17 12:38:40;;;;;;;12.15;6.45;;;;;;;30.33;36.98;100993.59;4818943;58;1138574;-80
2021/06/17 12:43:52;;;;;;;9.85;5.85;;;;;;;30.34;36.76;100981.61;4778832;59;1140906;-82
2021/06/17 12:54:21;;;;;;;;;;;;;;;30.26;36.91;100987.95;4869614;59;1140452;-80
2021/06/17 12:59:39;;;;;;;6.40;5.80;;;;;;;30.14;37.32;100962.56;4794077;60;976056;-86
2021/06/17 13:05:01;;;;;;;8.10;6.28;;;;;;;30.26;37.33;100971.03;4843266;59;1256809;-89
2021/06/17 13:10:28;;;;;;;11.60;6.62;;;;;;;30.22;36.43;100979.42;4817716;59;1138443;-82
2021/06/17 13:15:32;;;;;;;6.08;5.33;;;;;;;30.12;37.01;100960.06;4790359;60;1141055;-79
2021/06/17 13:20:47;;;;;;;5.60;5.17;;;;;;;30.35;36.20;100942.87;4763883;61;1138896;-83
2021/06/17 13:26:11;;;;;;;20.05;6.12;;;;;;;30.42;36.68;100943.02;4742912;61;1139008;-84
2021/06/17 13:31:32;;;;;;;13.83;6.00;;;;;;;30.49;36.32;100941.54;4755117;61;1140959;-82
2021/06/17 13:36:39;;;;;;;13.32;6.37;;;;;;;30.61;36.59;100930.09;4741615;61;1140865;-80
2021/06/17 13:41:46;;;;;;;8.58;6.30;;;;;;;30.71;36.09;100929.45;4757234;60;1141123;-83
2021/06/17 13:46:53;;;;;;;5.92;5.42;;;;;;;30.74;34.73;100939.38;4778539;59;1138774;-84
2021/06/17 13:52:00;;;;;;;9.53;6.65;;;;;;;30.71;34.81;100939.02;4820958;59;1138833;-85
2021/06/17 13:57:11;;;;;;;7.05;5.45;;;;;;;30.76;35.11;100940.50;4777838;59;1138346;-84
2021/06/17 14:02:16;;;;;;;8.85;5.47;;;;;;;30.87;34.58;100931.43;4906542;58;1138727;-81
2021/06/17 14:07:21;;;;;;;7.03;4.90;;;;;;;30.97;34.84;100920.73;4856394;59;1138452;-82
2021/06/17 14:12:28;;;;;;;7.47;5.20;;;;;;;30.99;34.30;100921.85;4869063;58;1138789;-81
2021/06/17 14:17:34;;;;;;;10.28;5.35;;;;;;;31.05;34.47;100926.31;4798542;59;1138874;-82
2021/06/17 14:22:41;;;;;;;6.92;5.92;;;;;;;31.14;33.19;100932.27;4850286;58;1141010;-79
2021/06/17 14:27:49;;;;;;;8.30;6.25;;;;;;;31.13;33.32;100925.14;4872499;59;1138773;-84
2021/06/17 14:32:55;;;;;;;10.63;5.75;;;;;;;31.17;34.27;100914.03;4850795;59;1138464;-87
2021/06/17 14:38:01;;;;;;;52.40;7.73;;;;;;;31.23;33.34;100913.86;4793712;60;1140626;-87
2021/06/17 14:43:07;;;;;;;5.53;5.00;;;;;;;31.24;33.33;100903.75;4792167;60;1140676;-85
2021/06/17 14:48:13;;;;;;;10.25;5.50;;;;;;;31.22;33.89;100907.27;4791899;60;1138488;-85
2021/06/17 14:53:19;;;;;;;13.10;6.00;;;;;;;31.17;33.26;100912.09;4792216;60;1140897;-86
2021/06/17 14:58:26;;;;;;;11.18;6.28;;;;;;;31.10;33.49;100899.97;4792248;60;1141154;-85
2021/06/17 15:03:33;;;;;;;11.65;6.65;;;;;;;31.14;33.78;100892.11;4792396;60;1141027;-86
2021/06/17 15:08:39;;;;;;;6.67;5.55;;;;;;;31.28;33.69;100887.16;4791990;60;1140847;-86
2021/06/17 15:13:46;;;;;;;10.85;6.10;;;;;;;31.33;33.39;100879.86;4792318;60;1138748;-85
2021/06/17 15:18:51;;;;;;;14.55;6.15;;;;;;;31.36;33.10;100889.48;4792048;60;1140889;-84
2021/06/17 15:23:58;;;;;;;8.73;5.65;;;;;;;31.32;32.55;100889.70;4792134;60;1141111;-84
2021/06/17 15:29:04;;;;;;;11.48;5.85;;;;;;;31.26;32.80;100887.94;4792158;60;1138791;-85
2021/06/17 15:34:10;;;;;;;10.78;5.50;;;;;;;31.24;33.49;100884.63;4791896;60;1140477;-87
2021/06/17 15:39:16;;;;;;;7.63;6.90;;;;;;;31.29;33.73;100876.52;4814289;59;1140497;-85
2021/06/17 15:44:22;;;;;;;8.90;6.30;;;;;;;31.35;32.86;100871.42;4792064;60;1138321;-85
2021/06/17 15:49:29;;;;;;;15.18;6.65;;;;;;;31.22;32.67;100872.56;4792362;60;1138659;-85
2021/06/17 15:54:34;;;;;;;9.20;5.65;;;;;;;31.11;32.44;100868.00;4792066;60;1140400;-86
2021/06/17 15:59:40;;;;;;;29.10;6.87;;;;;;;31.08;33.41;100859.73;4791509;59;1138424;-87
2021/06/17 16:04:47;;;;;;;8.05;6.30;;;;;;;31.05;33.77;100874.41;4792247;60;1140523;-85
2021/06/17 16:09:53;;;;;;;7.30;5.90;;;;;;;30.99;33.23;100862.58;4792081;59;1138490;-85
2021/06/17 16:14:59;;;;;;;8.70;5.97;;;;;;;30.99;33.62;100863.94;4840713;59;1138541;-88
2021/06/17 16:20:06;;;;;;;11.57;5.67;;;;;;;30.92;34.00;100871.45;4814425;59;1138531;-87
2021/06/17 16:25:13;;;;;;;9.00;6.50;;;;;;;30.85;33.39;100878.98;4833507;59;1140650;-87
2021/06/17 16:30:20;;;;;;;6.22;5.60;;;;;;;30.76;33.92;100869.49;4834525;59;1138724;-90
2021/06/17 16:35:30;;;;;;;8.03;6.60;;;;;;;30.78;34.34;100869.55;4792149;60;1138336;-86
2021/06/17 16:40:36;;;;;;;7.12;6.40;;;;;;;30.78;33.58;100865.45;4791891;60;1138348;-84
2021/06/17 16:45:47;;;;;;;10.30;6.72;;;;;;;30.74;33.85;100857.44;4827271;59;1138373;-84
2021/06/17 16:50:50;;;;;;;8.03;6.62;;;;;;;30.73;34.26;100854.42;4796624;59;1140429;-86
2021/06/17 16:55:56;;;;;;;13.40;7.37;;;;;;;30.64;34.24;100854.52;4792220;60;1138368;-86
2021/06/17 17:01:03;;;;;;;7.00;6.30;;;;;;;30.58;34.91;100866.41;4818352;59;1140920;-85
2021/06/17 17:06:09;;;;;;;9.45;7.50;;;;;;;30.51;34.87;100870.33;4839387;59;1138654;-85
2021/06/17 17:11:15;;;;;;;8.60;6.33;;;;;;;30.51;35.17;100875.25;4832406;59;1138846;-86
2021/06/17 17:16:21;;;;;;;10.00;6.72;;;;;;;30.51;35.15;100872.52;4818443;59;1138326;-87
2021/06/17 17:21:28;;;;;;;12.60;6.92;;;;;;;30.42;35.28;100873.41;4854598;59;1140423;-84
2021/06/17 17:26:34;;;;;;;8.68;6.92;;;;;;;30.35;35.61;100867.28;4867299;59;1140571;-86
2021/06/17 17:31:40;;;;;;;13.60;6.10;;;;;;;30.30;35.93;100869.06;4821087;59;1138570;-87
2021/06/17 17:36:46;;;;;;;25.75;7.28;;;;;;;30.21;36.22;100866.42;4791143;60;1140462;-87
2021/06/17 17:41:53;;;;;;;12.88;7.12;;;;;;;30.08;36.55;100871.60;4791199;60;1140470;-86
2021/06/17 17:46:59;;;;;;;18.80;7.85;;;;;;;30.02;37.09;100871.18;4791279;60;1140688;-86
2021/06/17 17:52:05;;;;;;;13.05;6.25;;;;;;;29.98;37.40;100874.91;4791835;60;1140383;-87
2021/06/17 17:57:11;;;;;;;14.90;6.95;;;;;;;29.91;37.49;100875.55;4837832;59;1140738;-87
2021/06/17 18:02:17;;;;;;;9.90;7.30;;;;;;;29.84;37.68;100876.72;4832342;59;1140568;-90
2021/06/17 18:07:23;;;;;;;16.87;7.07;;;;;;;29.80;37.98;100877.72;4852547;59;1138630;-85
2021/06/17 18:12:30;;;;;;;10.80;7.10;;;;;;;29.71;38.43;100886.80;4812591;59;1140748;-88
2021/06/17 18:17:37;;;;;;;8.68;7.15;;;;;;;29.61;38.78;100887.92;4806065;59;1140591;-86
2021/06/17 18:22:43;;;;;;;18.25;7.95;;;;;;;29.50;39.25;100886.52;4867839;59;1138562;-85
2021/06/17 18:27:49;;;;;;;11.25;7.53;;;;;;;29.35;39.90;100887.77;4824113;59;1140544;-87
2021/06/17 18:32:56;;;;;;;12.63;6.72;;;;;;;29.20;40.14;100896.91;4830140;59;1140544;-85
2021/06/17 18:38:02;;;;;;;7.42;6.72;;;;;;;29.03;40.86;100909.52;4855398;59;1140624;-86
2021/06/17 18:43:08;;;;;;;13.90;6.28;;;;;;;28.80;41.29;100908.89;4867472;59;1138535;-86
2021/06/17 18:48:14;;;;;;;9.60;7.25;;;;;;;28.64;41.67;100909.48;4866871;59;1140389;-87
2021/06/17 18:53:20;;;;;;;12.10;7.05;;;;;;;28.50;42.16;100918.87;4867141;59;1138307;-86
2021/06/17 18:58:26;;;;;;;11.55;6.05;;;;;;;28.31;42.37;100916.66;4866548;59;1140431;-84
2021/06/17 19:03:32;;;;;;;11.78;6.30;;;;;;;28.17;42.60;100922.73;4810702;60;1140352;-85
2021/06/17 19:08:38;;;;;;;13.08;6.37;;;;;;;28.04;43.06;100926.95;4867291;59;1140342;-85
2021/06/17 19:13:44;;;;;;;10.15;6.22;;;;;;;27.89;43.06;100921.86;4803725;59;1140332;-85
2021/06/17 19:18:50;;;;;;;8.63;6.30;;;;;;;27.76;43.68;100939.64;4791660;60;1140604;-88
2021/06/17 19:23:57;;;;;;;11.40;6.47;;;;;;;27.61;43.90;100943.22;4794699;60;1138764;-87
2021/06/17 19:29:02;;;;;;;10.75;6.15;;;;;;;27.45;44.31;100939.64;4829788;59;1140862;-85
2021/06/17 19:34:09;;;;;;;12.00;6.53;;;;;;;27.28;44.32;100949.66;4798088;59;1141142;-82
2021/06/17 19:39:15;;;;;;;9.63;6.58;;;;;;;27.19;44.56;100948.80;4791664;60;1140957;-85
2021/06/17 19:44:21;;;;;;;13.53;6.65;;;;;;;27.10;44.60;100948.72;4792459;60;1138963;-82
2021/06/17 19:49:27;;;;;;;9.55;6.55;;;;;;;26.98;44.65;100959.95;4790970;60;1140658;-78
2021/06/17 19:54:51;;;;;;;13.08;7.37;;;;;;;26.80;45.07;100957.38;4802213;60;1138557;-81
2021/06/17 19:59:42;;;;;;;20.50;6.20;;;;;;;26.68;45.28;100957.74;4817440;59;1140713;-80
2021/06/17 20:04:48;;;;;;;9.93;6.00;;;;;;;26.56;45.61;100954.86;4826167;59;1140973;-78
2021/06/17 20:09:56;;;;;;;6.40;5.58;;;;;;;26.46;45.64;100945.48;4834974;59;1138643;-82
2021/06/17 20:15:01;;;;;;;11.22;5.70;;;;;;;26.33;45.94;100952.30;4800781;59;1138667;-77
2021/06/17 20:20:08;;;;;;;14.10;6.30;;;;;;;26.20;45.97;100945.83;4810443;59;1141177;-79
2021/06/17 20:25:15;;;;;;;11.78;6.37;;;;;;;26.10;46.19;100948.14;4852422;59;1140782;-82
2021/06/17 20:30:21;;;;;;;11.73;5.58;;;;;;;25.98;46.46;100947.08;4852091;59;1140750;-81
2021/06/17 20:35:28;;;;;;;9.58;5.65;;;;;;;25.89;46.60;100954.61;4844011;59;1140989;-76
2021/06/17 20:40:34;;;;;;;8.53;6.05;;;;;;;25.79;47.10;100953.36;4781416;60;1138664;-82
2021/06/17 20:45:39;;;;;;;7.50;5.78;;;;;;;25.64;47.28;100963.05;4823882;59;1138849;-82
2021/06/17 20:50:45;;;;;;;7.15;5.97;;;;;;;25.55;47.21;100970.48;4783778;60;1138920;-80
2021/06/17 20:55:56;;;;;;;8.13;5.15;;;;;;;25.47;47.66;100978.81;4866195;59;1138880;-80
2021/06/17 21:00:59;;;;;;;9.15;5.40;;;;;;;25.40;47.59;100975.25;4806324;59;1138776;-75
2021/06/17 21:06:05;;;;;;;6.47;4.53;;;;;;;25.28;47.85;100974.18;4960642;58;1138651;-81
2021/06/17 21:11:11;;;;;;;5.62;4.85;;;;;;;25.18;48.02;100975.93;4973284;58;1138797;-77
2021/06/17 21:16:17;;;;;;;6.47;4.55;;;;;;;25.11;48.14;100979.12;4973237;58;1138603;-82
2021/06/17 21:21:22;;;;;;;7.00;4.62;;;;;;;25.02;48.09;100974.94;4971333;58;1138626;-81
2021/06/17 21:26:29;;;;;;;10.58;4.30;;;;;;;24.89;48.51;100966.73;4904104;58;1138745;-76
2021/06/17 21:31:36;;;;;;;7.37;4.80;;;;;;;24.77;48.63;100974.56;4969028;58;1140991;-80
2021/06/17 21:36:43;;;;;;;6.97;4.45;;;;;;;24.65;48.73;100976.17;4976099;58;1138517;-81
2021/06/17 21:41:48;;;;;;;8.83;4.03;;;;;;;24.57;48.64;100969.59;4973242;58;1138641;-78
2021/06/17 21:46:56;;;;;;;9.33;4.90;;;;;;;24.53;48.63;100981.31;4922124;58;1138942;-77
2021/06/17 21:52:01;;;;;;;5.15;3.77;;;;;;;24.50;48.49;100979.52;4965758;57;1138445;-80
2021/06/17 21:57:08;;;;;;;7.92;4.53;;;;;;;24.43;48.41;100981.36;4982983;57;1138663;-75
2021/06/17 22:02:14;;;;;;;4.65;4.00;;;;;;;24.36;48.35;100980.47;4993976;57;1138514;-77
2021/06/17 22:07:20;;;;;;;10.17;3.67;;;;;;;24.30;48.38;100970.42;5012300;57;1138355;-78
2021/06/17 22:12:26;;;;;;;10.58;4.05;;;;;;;24.20;48.51;100968.89;5011532;57;1140451;-80
2021/06/17 22:17:32;;;;;;;9.03;3.35;;;;;;;24.12;48.23;100965.52;5012181;57;1140875;-79
2021/06/17 22:22:40;;;;;;;7.87;4.00;;;;;;;24.00;48.33;100981.40;5011910;57;1138366;-79
2021/06/17 22:27:46;;;;;;;8.30;5.15;;;;;;;23.93;48.16;100977.83;5011812;57;1138250;-81
2021/06/17 22:32:52;;;;;;;3.75;3.45;;;;;;;23.88;48.02;100987.53;5011735;57;1138311;-81
2021/06/17 22:38:02;;;;;;;7.10;3.37;;;;;;;23.79;48.02;100983.63;5012213;57;1138764;-80
2021/06/17 22:43:08;;;;;;;7.42;4.25;;;;;;;23.71;47.86;100979.70;5011890;57;1138312;-79
2021/06/17 22:48:14;;;;;;;4.83;3.10;;;;;;;23.64;47.87;100979.33;5012407;57;1138794;-79
2021/06/17 22:53:20;;;;;;;5.08;3.62;;;;;;;23.58;47.80;100984.97;5011687;57;1138657;-81
2021/06/17 22:58:27;;;;;;;4.47;3.80;;;;;;;23.53;47.85;100985.25;5012662;57;1138366;-80
2021/06/17 23:03:33;;;;;;;6.95;3.33;;;;;;;23.46;47.78;100982.43;5012507;57;1138461;-82
2021/06/17 23:08:41;;;;;;;5.53;3.90;;;;;;;23.39;47.79;100982.86;5012440;57;1138790;-78
2021/06/17 23:13:47;;;;;;;4.67;3.72;;;;;;;23.30;47.75;100977.27;5012366;57;1138458;-77
2021/06/17 23:18:54;;;;;;;5.17;3.42;;;;;;;23.24;47.73;100987.47;5012537;57;1138706;-76
2021/06/17 23:24:01;;;;;;;10.85;3.92;;;;;;;23.15;47.92;100980.00;5012754;57;1138642;-80
2021/06/17 23:29:06;;;;;;;5.13;3.90;;;;;;;23.08;48.06;100984.47;5012551;57;1140769;-82